Overview Statistics Trail Chart Weather Telemetry Raw packets
 

This is the latest recevied weather packets stored in our database for station/object W5ITZ. If no packets are shown the sender has not sent any weather packets the latest 10 day(s).

<< 5 6 7 8 9 10 11 >>
Time Temp. Humidity Pressure Rain* Wind** Luminosity Snow
1788187685 31.67° C 70% 1016.3 hPa 0 mm - 160 W/m² -
1788187381 31.67° C 72% 1016.2 hPa 0 mm - 560 W/m² -
1788187080 31.67° C 71% 1016.2 hPa 0 mm - 538 W/m² -
1788186775 31.67° C 73% 1016.3 hPa 0 mm - 545 W/m² -
1788186470 31.67° C 73% 1016 hPa 0 mm - 517 W/m² -
1788186166 31.11° C 74% 1016 hPa 0 mm - 450 W/m² -
1788185866 31.67° C 73% 1016.3 hPa 0 mm - 370 W/m² -
1788185566 31.67° C 73% 1016.2 hPa 0 mm - 164 W/m² -
1788185261 30.56° C 77% 1016.1 hPa 0 mm - 312 W/m² -
1788184955 30° C 78% 1016.2 hPa 0 mm - 289 W/m² -
1788184653 30° C 79% 1016.1 hPa 0 mm - 272 W/m² -
1788184349 29.44° C 80% 1016 hPa 0 mm - 75 W/m² -
1788184044 30° C 80% 1016 hPa 0 mm - 231 W/m² -
1788183741 29.44° C 81% 1016.2 hPa 0 mm - 212 W/m² -
1788183439 28.89° C 84% 1016.1 hPa 0 mm - 195 W/m² -
1788183134 28.33° C 86% 1015.9 hPa 0 mm - 174 W/m² -
1788182829 27.78° C 87% 1015.9 hPa 0 mm - 162 W/m² -
1788182528 27.22° C 89% 1015.8 hPa 0 mm - 142 W/m² -
1788182223 27.22° C 90% 1015.8 hPa 0 mm - 116 W/m² -
1788181920 26.67° C 92% 1015.3 hPa 0 mm - 94 W/m² -
1788181615 26.11° C 93% 1015.3 hPa 0 mm - 80 W/m² -
1788181310 26.11° C 94% 1015.3 hPa 0 mm - 71 W/m² -
1788181009 25.56° C 95% 1015.3 hPa 0 mm - 67 W/m² -
1788180704 25.56° C 96% 1015.5 hPa 0 mm - 61 W/m² -
1788180400 25° C 96% 1015.2 hPa 0 mm - 53 W/m² -

* Rain latest hour (hover to see other rain measurements)
** Current wind speed in m/s (hover to see current wind gust speed)